Chelan Falls, Washington
Current Conditions -  °F | °C
As of 5:43 PM on Tuesday 25 Nov 2014 (Local Time) from KEAT Reporting Station
Haze Haze  
Wind Chill: 36°   Ceiling: 1600
Heat Index: 39°   Visibility: 5mi
Dew Point: 35°   Wind: 5mph
Humidity: 86%   Direction: 140°SE
Pressure: 30.24"   Gusts: NA
Location:  47.8°N, 119.99°W
Report Text: KEAT 260143Z AUTO 14004KT 5SM BR SCT005 SCT009 OVC016 04/02 A3024 RMK AO2 RAE40 P0002 T00390017
Loading
Personal Weather Stations






























Interactive Weather Map New forecast layout! Learn more

10-Day Weather Forecast

Advertisements
Track Severe Weather on mobile